Sucre, Bolivia
Current Conditions -  °F | °C
As of 7:00 PM on Friday 21 Nov 2014 (Local Time) from SLSU Reporting Station
Few Clouds Few Clouds  
Wind Chill: 64°   Ceiling: Unl
Heat Index: 64°   Visibility: 6mi
Dew Point: 48°   Wind: 12mph
Humidity: 56%   Direction: 10°N
Pressure: 30.21"   Gusts: NA
Location:  19.06°S, 65.26°W
Report Text: SLSU 212300Z 01010KT 9999 FEW020 FEW030CB 18/09 Q1023
Loading
Personal Weather Stations






























Interactive Weather Map New forecast layout! Learn more

10-Day Weather Forecast

Advertisements
Track Severe Weather on mobile